sensor_id;sensor_type;location;lat;lon;timestamp;P1;durP1;ratioP1;P2;durP2;ratioP2
61569;SDS011;47462;59.172;17.196;2023-11-18T00:01:43;5.85;;;3.13;;
61569;SDS011;47462;59.172;17.196;2023-11-18T00:04:09;6.10;;;4.18;;
61569;SDS011;47462;59.172;17.196;2023-11-18T00:06:40;4.82;;;3.35;;
61569;SDS011;47462;59.172;17.196;2023-11-18T00:09:09;4.50;;;3.10;;
61569;SDS011;47462;59.172;17.196;2023-11-18T00:11:40;4.72;;;3.50;;
61569;SDS011;47462;59.172;17.196;2023-11-18T00:14:06;5.88;;;3.47;;
61569;SDS011;47462;59.172;17.196;2023-11-18T00:16:32;5.07;;;3.53;;
61569;SDS011;47462;59.172;17.196;2023-11-18T00:18:57;6.13;;;3.37;;
61569;SDS011;47462;59.172;17.196;2023-11-18T00:21:26;7.35;;;3.45;;
61569;SDS011;47462;59.172;17.196;2023-11-18T00:23:53;5.80;;;3.45;;
61569;SDS011;47462;59.172;17.196;2023-11-18T00:26:18;4.47;;;3.00;;
61569;SDS011;47462;59.172;17.196;2023-11-18T00:28:44;6.97;;;3.60;;
61569;SDS011;47462;59.172;17.196;2023-11-18T00:31:09;5.43;;;3.27;;
61569;SDS011;47462;59.172;17.196;2023-11-18T00:33:35;4.85;;;3.38;;
61569;SDS011;47462;59.172;17.196;2023-11-18T00:36:00;4.90;;;2.88;;
61569;SDS011;47462;59.172;17.196;2023-11-18T00:38:26;5.43;;;3.17;;
61569;SDS011;47462;59.172;17.196;2023-11-18T00:40:51;5.80;;;2.85;;
61569;SDS011;47462;59.172;17.196;2023-11-18T00:43:17;5.50;;;3.10;;
61569;SDS011;47462;59.172;17.196;2023-11-18T00:45:42;3.70;;;2.92;;
61569;SDS011;47462;59.172;17.196;2023-11-18T00:48:08;4.93;;;2.83;;
61569;SDS011;47462;59.172;17.196;2023-11-18T00:50:34;5.30;;;3.08;;
61569;SDS011;47462;59.172;17.196;2023-11-18T00:53:00;3.97;;;2.85;;
61569;SDS011;47462;59.172;17.196;2023-11-18T00:55:26;5.85;;;3.38;;
61569;SDS011;47462;59.172;17.196;2023-11-18T00:57:52;5.95;;;3.30;;
61569;SDS011;47462;59.172;17.196;2023-11-18T01:00:18;5.80;;;3.40;;
61569;SDS011;47462;59.172;17.196;2023-11-18T01:02:51;6.50;;;3.00;;
61569;SDS011;47462;59.172;17.196;2023-11-18T01:05:18;10.50;;;5.28;;
61569;SDS011;47462;59.172;17.196;2023-11-18T01:07:44;5.35;;;3.58;;
61569;SDS011;47462;59.172;17.196;2023-11-18T01:10:09;8.73;;;4.20;;
61569;SDS011;47462;59.172;17.196;2023-11-18T01:15:01;6.95;;;4.05;;
61569;SDS011;47462;59.172;17.196;2023-11-18T01:17:28;6.93;;;3.95;;
61569;SDS011;47462;59.172;17.196;2023-11-18T01:22:20;7.10;;;4.78;;
61569;SDS011;47462;59.172;17.196;2023-11-18T01:24:46;7.20;;;4.40;;
61569;SDS011;47462;59.172;17.196;2023-11-18T01:27:12;10.25;;;4.38;;
61569;SDS011;47462;59.172;17.196;2023-11-18T01:29:38;6.13;;;4.28;;
61569;SDS011;47462;59.172;17.196;2023-11-18T01:32:06;7.72;;;4.55;;
61569;SDS011;47462;59.172;17.196;2023-11-18T01:34:36;6.60;;;4.30;;
61569;SDS011;47462;59.172;17.196;2023-11-18T01:37:04;6.50;;;4.45;;
61569;SDS011;47462;59.172;17.196;2023-11-18T01:39:33;7.43;;;4.80;;
61569;SDS011;47462;59.172;17.196;2023-11-18T01:41:59;6.30;;;4.20;;
61569;SDS011;47462;59.172;17.196;2023-11-18T01:44:25;11.32;;;5.60;;
61569;SDS011;47462;59.172;17.196;2023-11-18T01:46:53;8.68;;;4.63;;
61569;SDS011;47462;59.172;17.196;2023-11-18T01:49:22;9.27;;;5.32;;
61569;SDS011;47462;59.172;17.196;2023-11-18T01:51:49;8.70;;;4.70;;
61569;SDS011;47462;59.172;17.196;2023-11-18T01:54:16;10.98;;;6.45;;
61569;SDS011;47462;59.172;17.196;2023-11-18T01:56:47;7.60;;;4.75;;
61569;SDS011;47462;59.172;17.196;2023-11-18T01:59:14;8.65;;;5.10;;
61569;SDS011;47462;59.172;17.196;2023-11-18T02:01:50;8.00;;;4.97;;
61569;SDS011;47462;59.172;17.196;2023-11-18T02:04:18;7.65;;;4.78;;
61569;SDS011;47462;59.172;17.196;2023-11-18T02:06:45;10.93;;;4.60;;
61569;SDS011;47462;59.172;17.196;2023-11-18T02:09:13;9.15;;;5.07;;
61569;SDS011;47462;59.172;17.196;2023-11-18T02:12:06;9.93;;;4.65;;
61569;SDS011;47462;59.172;17.196;2023-11-18T02:14:54;9.13;;;5.30;;
61569;SDS011;47462;59.172;17.196;2023-11-18T02:17:23;7.03;;;4.38;;
61569;SDS011;47462;59.172;17.196;2023-11-18T02:19:53;8.32;;;4.55;;
61569;SDS011;47462;59.172;17.196;2023-11-18T02:22:22;9.27;;;4.53;;
61569;SDS011;47462;59.172;17.196;2023-11-18T02:24:48;8.13;;;5.10;;
61569;SDS011;47462;59.172;17.196;2023-11-18T02:27:14;7.97;;;4.40;;
61569;SDS011;47462;59.172;17.196;2023-11-18T02:29:40;9.23;;;5.07;;
61569;SDS011;47462;59.172;17.196;2023-11-18T02:32:28;8.50;;;4.80;;
61569;SDS011;47462;59.172;17.196;2023-11-18T02:35:02;8.00;;;4.82;;
61569;SDS011;47462;59.172;17.196;2023-11-18T02:37:37;8.68;;;4.85;;
61569;SDS011;47462;59.172;17.196;2023-11-18T02:40:07;9.18;;;4.75;;
61569;SDS011;47462;59.172;17.196;2023-11-18T02:42:39;8.68;;;5.32;;
61569;SDS011;47462;59.172;17.196;2023-11-18T02:45:09;6.75;;;4.20;;
61569;SDS011;47462;59.172;17.196;2023-11-18T02:47:37;8.10;;;4.47;;
61569;SDS011;47462;59.172;17.196;2023-11-18T02:50:04;7.53;;;4.88;;
61569;SDS011;47462;59.172;17.196;2023-11-18T02:52:36;8.00;;;4.47;;
61569;SDS011;47462;59.172;17.196;2023-11-18T02:55:05;7.53;;;4.57;;
61569;SDS011;47462;59.172;17.196;2023-11-18T02:57:37;9.75;;;6.03;;
61569;SDS011;47462;59.172;17.196;2023-11-18T03:00:03;7.00;;;4.65;;
61569;SDS011;47462;59.172;17.196;2023-11-18T03:02:30;6.63;;;4.53;;
61569;SDS011;47462;59.172;17.196;2023-11-18T03:04:59;8.25;;;5.50;;
61569;SDS011;47462;59.172;17.196;2023-11-18T03:07:25;7.65;;;4.25;;
61569;SDS011;47462;59.172;17.196;2023-11-18T03:09:52;9.30;;;4.32;;
61569;SDS011;47462;59.172;17.196;2023-11-18T03:12:22;7.40;;;4.45;;
61569;SDS011;47462;59.172;17.196;2023-11-18T03:14:47;10.27;;;4.00;;
61569;SDS011;47462;59.172;17.196;2023-11-18T03:17:13;10.88;;;4.28;;
61569;SDS011;47462;59.172;17.196;2023-11-18T03:19:38;7.10;;;4.73;;
61569;SDS011;47462;59.172;17.196;2023-11-18T03:22:04;6.45;;;3.95;;
61569;SDS011;47462;59.172;17.196;2023-11-18T03:24:29;12.27;;;4.82;;
61569;SDS011;47462;59.172;17.196;2023-11-18T03:26:55;5.72;;;4.00;;
61569;SDS011;47462;59.172;17.196;2023-11-18T03:29:21;7.18;;;4.57;;
61569;SDS011;47462;59.172;17.196;2023-11-18T03:31:47;6.15;;;3.63;;
61569;SDS011;47462;59.172;17.196;2023-11-18T03:34:17;6.78;;;4.13;;
61569;SDS011;47462;59.172;17.196;2023-11-18T03:36:46;5.53;;;3.97;;
61569;SDS011;47462;59.172;17.196;2023-11-18T03:39:13;5.03;;;3.58;;
61569;SDS011;47462;59.172;17.196;2023-11-18T03:44:04;4.38;;;3.03;;
61569;SDS011;47462;59.172;17.196;2023-11-18T03:46:30;6.17;;;3.50;;
61569;SDS011;47462;59.172;17.196;2023-11-18T03:48:59;5.10;;;3.28;;
61569;SDS011;47462;59.172;17.196;2023-11-18T03:51:26;8.68;;;3.80;;
61569;SDS011;47462;59.172;17.196;2023-11-18T03:53:51;6.57;;;2.92;;
61569;SDS011;47462;59.172;17.196;2023-11-18T03:56:17;5.57;;;3.57;;
61569;SDS011;47462;59.172;17.196;2023-11-18T03:58:46;4.63;;;2.90;;
61569;SDS011;47462;59.172;17.196;2023-11-18T04:01:23;6.05;;;3.33;;
61569;SDS011;47462;59.172;17.196;2023-11-18T04:03:53;6.00;;;3.25;;
61569;SDS011;47462;59.172;17.196;2023-11-18T04:06:19;6.68;;;4.40;;
61569;SDS011;47462;59.172;17.196;2023-11-18T04:08:46;4.15;;;2.85;;
61569;SDS011;47462;59.172;17.196;2023-11-18T04:11:12;5.03;;;3.13;;
61569;SDS011;47462;59.172;17.196;2023-11-18T04:13:39;8.40;;;3.17;;
61569;SDS011;47462;59.172;17.196;2023-11-18T04:16:09;5.30;;;3.00;;
61569;SDS011;47462;59.172;17.196;2023-11-18T04:18:37;6.30;;;2.92;;
61569;SDS011;47462;59.172;17.196;2023-11-18T04:21:04;5.82;;;3.03;;
61569;SDS011;47462;59.172;17.196;2023-11-18T04:23:30;4.85;;;2.75;;
61569;SDS011;47462;59.172;17.196;2023-11-18T04:25:55;3.75;;;2.85;;
61569;SDS011;47462;59.172;17.196;2023-11-18T04:28:21;3.25;;;2.30;;
61569;SDS011;47462;59.172;17.196;2023-11-18T04:30:46;3.08;;;2.45;;
61569;SDS011;47462;59.172;17.196;2023-11-18T04:33:12;7.40;;;3.70;;
61569;SDS011;47462;59.172;17.196;2023-11-18T04:35:39;4.20;;;2.20;;
61569;SDS011;47462;59.172;17.196;2023-11-18T04:38:04;4.80;;;2.63;;
61569;SDS011;47462;59.172;17.196;2023-11-18T04:40:30;4.67;;;2.70;;
61569;SDS011;47462;59.172;17.196;2023-11-18T04:42:55;2.90;;;2.28;;
61569;SDS011;47462;59.172;17.196;2023-11-18T04:45:21;5.80;;;2.60;;
61569;SDS011;47462;59.172;17.196;2023-11-18T04:47:46;5.60;;;2.77;;
61569;SDS011;47462;59.172;17.196;2023-11-18T04:50:11;4.10;;;2.47;;
61569;SDS011;47462;59.172;17.196;2023-11-18T04:52:37;4.60;;;2.63;;
61569;SDS011;47462;59.172;17.196;2023-11-18T04:55:03;4.25;;;2.55;;
61569;SDS011;47462;59.172;17.196;2023-11-18T04:57:30;4.78;;;2.60;;
61569;SDS011;47462;59.172;17.196;2023-11-18T04:59:56;6.70;;;2.75;;
61569;SDS011;47462;59.172;17.196;2023-11-18T05:02:21;4.25;;;2.63;;
61569;SDS011;47462;59.172;17.196;2023-11-18T05:04:47;4.50;;;2.63;;
61569;SDS011;47462;59.172;17.196;2023-11-18T05:07:13;3.83;;;2.40;;
61569;SDS011;47462;59.172;17.196;2023-11-18T05:09:39;4.10;;;2.47;;
61569;SDS011;47462;59.172;17.196;2023-11-18T05:12:05;5.47;;;2.57;;
61569;SDS011;47462;59.172;17.196;2023-11-18T05:14:32;5.05;;;3.05;;
61569;SDS011;47462;59.172;17.196;2023-11-18T05:16:57;4.05;;;2.78;;
61569;SDS011;47462;59.172;17.196;2023-11-18T05:19:23;4.40;;;2.83;;
61569;SDS011;47462;59.172;17.196;2023-11-18T05:21:48;9.43;;;3.00;;
61569;SDS011;47462;59.172;17.196;2023-11-18T05:24:16;3.85;;;2.40;;
61569;SDS011;47462;59.172;17.196;2023-11-18T05:26:42;5.28;;;3.10;;
61569;SDS011;47462;59.172;17.196;2023-11-18T05:29:07;4.20;;;2.63;;
61569;SDS011;47462;59.172;17.196;2023-11-18T05:31:32;3.93;;;3.00;;
61569;SDS011;47462;59.172;17.196;2023-11-18T05:33:58;4.22;;;2.83;;
61569;SDS011;47462;59.172;17.196;2023-11-18T05:36:24;5.30;;;2.80;;
61569;SDS011;47462;59.172;17.196;2023-11-18T05:38:53;5.95;;;3.50;;
61569;SDS011;47462;59.172;17.196;2023-11-18T05:43:52;7.75;;;4.65;;
61569;SDS011;47462;59.172;17.196;2023-11-18T05:46:25;7.35;;;4.72;;
61569;SDS011;47462;59.172;17.196;2023-11-18T05:48:54;6.78;;;4.43;;
61569;SDS011;47462;59.172;17.196;2023-11-18T05:51:25;5.97;;;3.70;;
61569;SDS011;47462;59.172;17.196;2023-11-18T05:53:51;8.20;;;3.63;;
61569;SDS011;47462;59.172;17.196;2023-11-18T05:56:18;8.25;;;3.25;;
61569;SDS011;47462;59.172;17.196;2023-11-18T05:58:44;6.55;;;4.47;;
61569;SDS011;47462;59.172;17.196;2023-11-18T06:01:10;11.35;;;3.80;;
61569;SDS011;47462;59.172;17.196;2023-11-18T06:06:12;6.05;;;3.75;;
61569;SDS011;47462;59.172;17.196;2023-11-18T06:08:39;5.63;;;3.60;;
61569;SDS011;47462;59.172;17.196;2023-11-18T06:11:15;7.22;;;3.90;;
61569;SDS011;47462;59.172;17.196;2023-11-18T06:13:50;9.68;;;4.50;;
61569;SDS011;47462;59.172;17.196;2023-11-18T06:16:18;10.00;;;4.65;;
61569;SDS011;47462;59.172;17.196;2023-11-18T06:18:45;7.85;;;4.40;;
61569;SDS011;47462;59.172;17.196;2023-11-18T06:21:15;8.20;;;4.20;;
61569;SDS011;47462;59.172;17.196;2023-11-18T06:23:43;9.30;;;4.45;;
61569;SDS011;47462;59.172;17.196;2023-11-18T06:26:11;8.48;;;4.45;;
61569;SDS011;47462;59.172;17.196;2023-11-18T06:28:40;7.10;;;4.88;;
61569;SDS011;47462;59.172;17.196;2023-11-18T06:31:09;7.03;;;4.20;;
61569;SDS011;47462;59.172;17.196;2023-11-18T06:33:37;6.43;;;4.70;;
61569;SDS011;47462;59.172;17.196;2023-11-18T06:36:04;10.57;;;4.85;;
61569;SDS011;47462;59.172;17.196;2023-11-18T06:38:30;12.88;;;5.18;;
61569;SDS011;47462;59.172;17.196;2023-11-18T06:40:56;8.52;;;3.75;;
61569;SDS011;47462;59.172;17.196;2023-11-18T06:43:24;6.35;;;3.47;;
61569;SDS011;47462;59.172;17.196;2023-11-18T06:45:51;5.28;;;3.50;;
61569;SDS011;47462;59.172;17.196;2023-11-18T06:48:16;5.68;;;3.33;;
61569;SDS011;47462;59.172;17.196;2023-11-18T06:50:45;4.20;;;2.45;;
61569;SDS011;47462;59.172;17.196;2023-11-18T06:53:11;2.45;;;2.20;;
61569;SDS011;47462;59.172;17.196;2023-11-18T06:55:37;5.03;;;2.35;;
61569;SDS011;47462;59.172;17.196;2023-11-18T06:58:02;2.17;;;1.70;;
61569;SDS011;47462;59.172;17.196;2023-11-18T07:00:28;5.80;;;3.22;;
61569;SDS011;47462;59.172;17.196;2023-11-18T07:02:54;2.40;;;1.92;;
61569;SDS011;47462;59.172;17.196;2023-11-18T07:07:49;2.15;;;1.20;;
61569;SDS011;47462;59.172;17.196;2023-11-18T07:10:15;3.80;;;1.42;;
61569;SDS011;47462;59.172;17.196;2023-11-18T07:12:43;1.20;;;1.10;;
61569;SDS011;47462;59.172;17.196;2023-11-18T07:15:09;4.77;;;1.20;;
61569;SDS011;47462;59.172;17.196;2023-11-18T07:17:35;1.40;;;1.30;;
61569;SDS011;47462;59.172;17.196;2023-11-18T07:20:01;1.38;;;1.20;;
61569;SDS011;47462;59.172;17.196;2023-11-18T07:22:27;1.90;;;1.27;;
61569;SDS011;47462;59.172;17.196;2023-11-18T07:24:52;1.23;;;1.00;;
61569;SDS011;47462;59.172;17.196;2023-11-18T07:27:18;2.00;;;1.13;;
61569;SDS011;47462;59.172;17.196;2023-11-18T07:29:43;2.93;;;0.90;;
61569;SDS011;47462;59.172;17.196;2023-11-18T07:32:10;1.15;;;1.05;;
61569;SDS011;47462;59.172;17.196;2023-11-18T07:34:36;1.00;;;0.90;;
61569;SDS011;47462;59.172;17.196;2023-11-18T07:37:03;2.35;;;1.45;;
61569;SDS011;47462;59.172;17.196;2023-11-18T07:39:28;1.48;;;1.05;;
61569;SDS011;47462;59.172;17.196;2023-11-18T07:42:09;0.90;;;0.70;;
61569;SDS011;47462;59.172;17.196;2023-11-18T07:44:36;1.80;;;0.60;;
61569;SDS011;47462;59.172;17.196;2023-11-18T07:47:06;0.55;;;0.52;;
61569;SDS011;47462;59.172;17.196;2023-11-18T07:49:33;0.80;;;0.80;;
61569;SDS011;47462;59.172;17.196;2023-11-18T07:52:00;3.55;;;1.67;;
61569;SDS011;47462;59.172;17.196;2023-11-18T07:54:27;0.73;;;0.73;;
61569;SDS011;47462;59.172;17.196;2023-11-18T07:56:52;0.95;;;0.55;;
61569;SDS011;47462;59.172;17.196;2023-11-18T08:01:44;0.80;;;0.70;;
61569;SDS011;47462;59.172;17.196;2023-11-18T08:04:11;3.63;;;1.63;;
61569;SDS011;47462;59.172;17.196;2023-11-18T08:06:40;3.78;;;2.20;;
61569;SDS011;47462;59.172;17.196;2023-11-18T08:11:37;4.85;;;2.65;;
61569;SDS011;47462;59.172;17.196;2023-11-18T08:14:04;0.90;;;0.70;;
61569;SDS011;47462;59.172;17.196;2023-11-18T08:16:30;1.23;;;0.95;;
61569;SDS011;47462;59.172;17.196;2023-11-18T08:18:57;0.88;;;0.82;;
61569;SDS011;47462;59.172;17.196;2023-11-18T08:21:23;0.80;;;0.73;;
61569;SDS011;47462;59.172;17.196;2023-11-18T08:23:48;1.15;;;1.00;;
61569;SDS011;47462;59.172;17.196;2023-11-18T08:26:14;1.42;;;1.33;;
61569;SDS011;47462;59.172;17.196;2023-11-18T08:28:39;3.88;;;2.47;;
61569;SDS011;47462;59.172;17.196;2023-11-18T08:31:05;1.85;;;1.17;;
61569;SDS011;47462;59.172;17.196;2023-11-18T08:33:32;1.92;;;1.73;;
61569;SDS011;47462;59.172;17.196;2023-11-18T08:55:18;0.38;;;0.38;;
61569;SDS011;47462;59.172;17.196;2023-11-18T08:57:50;3.20;;;0.65;;
61569;SDS011;47462;59.172;17.196;2023-11-18T09:00:29;1.15;;;0.70;;
61569;SDS011;47462;59.172;17.196;2023-11-18T09:03:11;0.40;;;0.40;;
61569;SDS011;47462;59.172;17.196;2023-11-18T09:05:58;0.60;;;0.50;;
61569;SDS011;47462;59.172;17.196;2023-11-18T09:08:29;0.43;;;0.40;;
61569;SDS011;47462;59.172;17.196;2023-11-18T09:11:04;0.70;;;0.70;;
61569;SDS011;47462;59.172;17.196;2023-11-18T09:13:32;0.95;;;0.50;;
61569;SDS011;47462;59.172;17.196;2023-11-18T09:16:03;1.65;;;0.75;;
61569;SDS011;47462;59.172;17.196;2023-11-18T09:18:33;3.10;;;2.20;;
61569;SDS011;47462;59.172;17.196;2023-11-18T09:21:00;1.30;;;0.80;;
61569;SDS011;47462;59.172;17.196;2023-11-18T09:23:28;0.68;;;0.55;;
61569;SDS011;47462;59.172;17.196;2023-11-18T09:25:54;1.13;;;0.90;;
61569;SDS011;47462;59.172;17.196;2023-11-18T09:28:20;1.87;;;1.30;;
61569;SDS011;47462;59.172;17.196;2023-11-18T09:30:46;1.48;;;0.70;;
61569;SDS011;47462;59.172;17.196;2023-11-18T09:33:19;2.67;;;0.85;;
61569;SDS011;47462;59.172;17.196;2023-11-18T09:35:56;0.70;;;0.60;;
61569;SDS011;47462;59.172;17.196;2023-11-18T09:38:28;1.92;;;1.17;;
61569;SDS011;47462;59.172;17.196;2023-11-18T09:40:54;1.05;;;0.80;;
61569;SDS011;47462;59.172;17.196;2023-11-18T09:43:21;0.90;;;0.70;;
61569;SDS011;47462;59.172;17.196;2023-11-18T09:45:50;2.75;;;2.20;;
61569;SDS011;47462;59.172;17.196;2023-11-18T09:48:20;1.05;;;0.85;;
61569;SDS011;47462;59.172;17.196;2023-11-18T09:50:50;0.90;;;0.90;;
61569;SDS011;47462;59.172;17.196;2023-11-18T09:53:17;1.05;;;0.90;;
61569;SDS011;47462;59.172;17.196;2023-11-18T09:55:56;0.90;;;0.90;;
61569;SDS011;47462;59.172;17.196;2023-11-18T09:58:25;1.77;;;1.10;;
61569;SDS011;47462;59.172;17.196;2023-11-18T10:01:06;1.40;;;1.17;;
61569;SDS011;47462;59.172;17.196;2023-11-18T10:06:02;1.20;;;0.65;;
61569;SDS011;47462;59.172;17.196;2023-11-18T10:08:30;1.30;;;0.93;;
61569;SDS011;47462;59.172;17.196;2023-11-18T10:10:56;1.60;;;0.88;;
61569;SDS011;47462;59.172;17.196;2023-11-18T10:13:31;1.55;;;1.08;;
61569;SDS011;47462;59.172;17.196;2023-11-18T10:16:00;1.27;;;0.77;;
61569;SDS011;47462;59.172;17.196;2023-11-18T10:18:26;1.08;;;0.88;;
61569;SDS011;47462;59.172;17.196;2023-11-18T10:20:53;1.38;;;1.00;;
61569;SDS011;47462;59.172;17.196;2023-11-18T10:23:20;1.08;;;0.90;;
61569;SDS011;47462;59.172;17.196;2023-11-18T10:25:47;1.25;;;1.10;;
61569;SDS011;47462;59.172;17.196;2023-11-18T10:28:22;1.17;;;0.80;;
61569;SDS011;47462;59.172;17.196;2023-11-18T10:30:52;3.53;;;0.90;;
61569;SDS011;47462;59.172;17.196;2023-11-18T10:33:28;1.80;;;1.03;;
61569;SDS011;47462;59.172;17.196;2023-11-18T10:35:59;1.10;;;1.00;;
61569;SDS011;47462;59.172;17.196;2023-11-18T10:38:28;0.82;;;0.82;;
61569;SDS011;47462;59.172;17.196;2023-11-18T10:41:02;2.22;;;1.00;;
61569;SDS011;47462;59.172;17.196;2023-11-18T10:43:30;1.30;;;1.00;;
61569;SDS011;47462;59.172;17.196;2023-11-18T10:46:06;0.88;;;0.88;;
61569;SDS011;47462;59.172;17.196;2023-11-18T10:48:44;2.13;;;1.20;;
61569;SDS011;47462;59.172;17.196;2023-11-18T10:51:15;1.20;;;0.90;;
61569;SDS011;47462;59.172;17.196;2023-11-18T10:53:48;1.00;;;0.82;;
61569;SDS011;47462;59.172;17.196;2023-11-18T10:56:26;0.75;;;0.70;;
61569;SDS011;47462;59.172;17.196;2023-11-18T10:58:57;0.85;;;0.70;;
61569;SDS011;47462;59.172;17.196;2023-11-18T11:01:28;1.88;;;0.88;;
61569;SDS011;47462;59.172;17.196;2023-11-18T11:03:54;1.00;;;0.82;;
61569;SDS011;47462;59.172;17.196;2023-11-18T11:06:23;1.90;;;1.13;;
61569;SDS011;47462;59.172;17.196;2023-11-18T11:08:53;3.10;;;1.60;;
61569;SDS011;47462;59.172;17.196;2023-11-18T11:11:22;6.57;;;2.95;;
61569;SDS011;47462;59.172;17.196;2023-11-18T11:13:56;2.20;;;1.10;;
61569;SDS011;47462;59.172;17.196;2023-11-18T11:16:23;3.22;;;0.98;;
61569;SDS011;47462;59.172;17.196;2023-11-18T11:18:55;0.88;;;0.77;;
61569;SDS011;47462;59.172;17.196;2023-11-18T11:21:24;0.85;;;0.82;;
61569;SDS011;47462;59.172;17.196;2023-11-18T11:23:55;1.55;;;0.90;;
61569;SDS011;47462;59.172;17.196;2023-11-18T11:26:50;0.93;;;0.85;;
61569;SDS011;47462;59.172;17.196;2023-11-18T11:29:25;1.25;;;0.80;;
61569;SDS011;47462;59.172;17.196;2023-11-18T11:32:06;1.63;;;0.80;;
61569;SDS011;47462;59.172;17.196;2023-11-18T11:34:37;1.48;;;1.08;;
61569;SDS011;47462;59.172;17.196;2023-11-18T11:37:07;5.70;;;0.85;;
61569;SDS011;47462;59.172;17.196;2023-11-18T11:39:34;1.23;;;0.80;;
61569;SDS011;47462;59.172;17.196;2023-11-18T11:42:01;2.17;;;1.23;;
61569;SDS011;47462;59.172;17.196;2023-11-18T11:44:28;2.33;;;0.77;;
61569;SDS011;47462;59.172;17.196;2023-11-18T11:46:56;1.30;;;0.90;;
61569;SDS011;47462;59.172;17.196;2023-11-18T11:49:25;1.85;;;1.00;;
61569;SDS011;47462;59.172;17.196;2023-11-18T11:54:42;2.05;;;0.93;;
61569;SDS011;47462;59.172;17.196;2023-11-18T11:57:15;5.22;;;1.08;;
61569;SDS011;47462;59.172;17.196;2023-11-18T12:02:17;7.75;;;4.75;;
61569;SDS011;47462;59.172;17.196;2023-11-18T12:04:45;3.72;;;1.52;;
61569;SDS011;47462;59.172;17.196;2023-11-18T12:07:17;1.52;;;1.23;;
61569;SDS011;47462;59.172;17.196;2023-11-18T12:09:46;1.60;;;1.40;;
61569;SDS011;47462;59.172;17.196;2023-11-18T12:12:18;1.38;;;1.00;;
61569;SDS011;47462;59.172;17.196;2023-11-18T12:14:52;1.88;;;0.70;;
61569;SDS011;47462;59.172;17.196;2023-11-18T12:20:39;1.20;;;0.90;;
61569;SDS011;47462;59.172;17.196;2023-11-18T12:23:16;1.35;;;1.00;;
61569;SDS011;47462;59.172;17.196;2023-11-18T12:25:48;1.25;;;1.15;;
61569;SDS011;47462;59.172;17.196;2023-11-18T12:28:30;1.00;;;0.85;;
61569;SDS011;47462;59.172;17.196;2023-11-18T12:30:59;1.48;;;1.00;;
61569;SDS011;47462;59.172;17.196;2023-11-18T12:36:29;1.38;;;0.68;;
61569;SDS011;47462;59.172;17.196;2023-11-18T12:42:20;1.65;;;1.27;;
61569;SDS011;47462;59.172;17.196;2023-11-18T12:47:58;3.67;;;2.15;;
61569;SDS011;47462;59.172;17.196;2023-11-18T12:50:38;4.00;;;2.30;;
61569;SDS011;47462;59.172;17.196;2023-11-18T12:53:06;2.10;;;1.27;;
61569;SDS011;47462;59.172;17.196;2023-11-18T12:55:32;4.55;;;1.08;;
61569;SDS011;47462;59.172;17.196;2023-11-18T12:57:59;2.80;;;1.00;;
61569;SDS011;47462;59.172;17.196;2023-11-18T13:00:25;1.05;;;0.85;;
61569;SDS011;47462;59.172;17.196;2023-11-18T13:02:59;1.33;;;0.75;;
61569;SDS011;47462;59.172;17.196;2023-11-18T13:05:25;0.93;;;0.73;;
61569;SDS011;47462;59.172;17.196;2023-11-18T13:07:58;0.85;;;0.55;;
61569;SDS011;47462;59.172;17.196;2023-11-18T13:10:26;1.25;;;0.80;;
61569;SDS011;47462;59.172;17.196;2023-11-18T13:12:52;0.80;;;0.80;;
61569;SDS011;47462;59.172;17.196;2023-11-18T13:15:18;1.15;;;0.75;;
61569;SDS011;47462;59.172;17.196;2023-11-18T13:20:26;1.17;;;0.63;;
61569;SDS011;47462;59.172;17.196;2023-11-18T13:22:52;1.63;;;1.15;;
61569;SDS011;47462;59.172;17.196;2023-11-18T13:25:21;2.60;;;1.50;;
61569;SDS011;47462;59.172;17.196;2023-11-18T13:27:48;1.10;;;0.88;;
61569;SDS011;47462;59.172;17.196;2023-11-18T13:30:14;0.70;;;0.70;;
61569;SDS011;47462;59.172;17.196;2023-11-18T13:32:42;0.70;;;0.70;;
61569;SDS011;47462;59.172;17.196;2023-11-18T13:35:08;1.50;;;1.10;;
61569;SDS011;47462;59.172;17.196;2023-11-18T13:37:38;1.23;;;0.80;;
61569;SDS011;47462;59.172;17.196;2023-11-18T13:40:06;2.22;;;0.60;;
61569;SDS011;47462;59.172;17.196;2023-11-18T13:42:33;0.60;;;0.60;;
61569;SDS011;47462;59.172;17.196;2023-11-18T13:45:03;1.05;;;0.95;;
61569;SDS011;47462;59.172;17.196;2023-11-18T13:47:36;0.93;;;0.80;;
61569;SDS011;47462;59.172;17.196;2023-11-18T13:50:06;1.33;;;0.85;;
61569;SDS011;47462;59.172;17.196;2023-11-18T13:52:33;1.33;;;0.93;;
61569;SDS011;47462;59.172;17.196;2023-11-18T13:54:59;1.23;;;0.90;;
61569;SDS011;47462;59.172;17.196;2023-11-18T13:57:25;0.98;;;0.90;;
61569;SDS011;47462;59.172;17.196;2023-11-18T13:59:52;2.95;;;1.48;;
61569;SDS011;47462;59.172;17.196;2023-11-18T14:02:19;1.45;;;0.90;;
61569;SDS011;47462;59.172;17.196;2023-11-18T14:04:46;1.10;;;0.93;;
61569;SDS011;47462;59.172;17.196;2023-11-18T14:07:16;2.78;;;1.30;;
61569;SDS011;47462;59.172;17.196;2023-11-18T14:09:42;5.45;;;0.95;;
61569;SDS011;47462;59.172;17.196;2023-11-18T14:12:10;0.70;;;0.70;;
61569;SDS011;47462;59.172;17.196;2023-11-18T14:14:37;1.17;;;0.80;;
61569;SDS011;47462;59.172;17.196;2023-11-18T14:17:03;1.08;;;0.98;;
61569;SDS011;47462;59.172;17.196;2023-11-18T14:19:32;0.70;;;0.60;;
61569;SDS011;47462;59.172;17.196;2023-11-18T14:22:01;1.63;;;1.02;;
61569;SDS011;47462;59.172;17.196;2023-11-18T14:24:31;1.80;;;1.52;;
61569;SDS011;47462;59.172;17.196;2023-11-18T14:26:59;2.15;;;0.95;;
61569;SDS011;47462;59.172;17.196;2023-11-18T14:29:25;1.60;;;0.80;;
61569;SDS011;47462;59.172;17.196;2023-11-18T14:31:52;1.20;;;0.93;;
61569;SDS011;47462;59.172;17.196;2023-11-18T14:34:19;1.60;;;0.98;;
61569;SDS011;47462;59.172;17.196;2023-11-18T14:36:45;3.38;;;0.95;;
61569;SDS011;47462;59.172;17.196;2023-11-18T14:39:11;0.90;;;0.75;;
61569;SDS011;47462;59.172;17.196;2023-11-18T14:41:39;1.00;;;0.82;;
61569;SDS011;47462;59.172;17.196;2023-11-18T14:46:32;2.53;;;0.90;;
61569;SDS011;47462;59.172;17.196;2023-11-18T14:48:57;1.25;;;1.15;;
61569;SDS011;47462;59.172;17.196;2023-11-18T14:51:23;1.17;;;1.08;;
61569;SDS011;47462;59.172;17.196;2023-11-18T14:53:50;0.82;;;0.80;;
61569;SDS011;47462;59.172;17.196;2023-11-18T14:56:15;1.40;;;1.00;;
61569;SDS011;47462;59.172;17.196;2023-11-18T14:58:41;1.65;;;1.10;;
61569;SDS011;47462;59.172;17.196;2023-11-18T15:01:07;1.25;;;1.05;;
61569;SDS011;47462;59.172;17.196;2023-11-18T15:03:35;1.40;;;1.27;;
61569;SDS011;47462;59.172;17.196;2023-11-18T15:06:01;1.63;;;1.30;;
61569;SDS011;47462;59.172;17.196;2023-11-18T15:08:26;2.37;;;1.33;;
61569;SDS011;47462;59.172;17.196;2023-11-18T15:10:51;1.37;;;1.27;;
61569;SDS011;47462;59.172;17.196;2023-11-18T15:13:17;2.70;;;1.00;;
61569;SDS011;47462;59.172;17.196;2023-11-18T15:15:46;1.40;;;1.30;;
61569;SDS011;47462;59.172;17.196;2023-11-18T15:18:14;1.48;;;1.13;;
61569;SDS011;47462;59.172;17.196;2023-11-18T15:20:45;1.40;;;1.10;;
61569;SDS011;47462;59.172;17.196;2023-11-18T15:23:11;3.83;;;1.88;;
61569;SDS011;47462;59.172;17.196;2023-11-18T15:25:37;4.90;;;3.03;;
61569;SDS011;47462;59.172;17.196;2023-11-18T15:28:03;3.55;;;2.30;;
61569;SDS011;47462;59.172;17.196;2023-11-18T15:30:34;7.30;;;1.95;;
61569;SDS011;47462;59.172;17.196;2023-11-18T15:33:02;1.42;;;1.00;;
61569;SDS011;47462;59.172;17.196;2023-11-18T15:35:28;1.33;;;1.10;;
61569;SDS011;47462;59.172;17.196;2023-11-18T15:37:53;1.20;;;1.10;;
61569;SDS011;47462;59.172;17.196;2023-11-18T15:40:19;2.28;;;1.00;;
61569;SDS011;47462;59.172;17.196;2023-11-18T15:42:46;1.58;;;1.13;;
61569;SDS011;47462;59.172;17.196;2023-11-18T15:45:17;1.60;;;1.23;;